Journey — WDA4074 — position and weather

sailwx.info

Track history (hours):
 
Tides and Currents Weather Stations Pressure Air Temp Water Temp Dewpoint Dewpoint Depression Visibility Wind Speed Wind Dir Waves Ship Positions

Journey

Owner: Beller, Jeff B, Ventura, CA. More information available from US FCC via Universal Licensing System and Coast Guard Vessel Documentation Center.

Last reported at 2018-Jun-17 22:47 UTC. Time now 2018-Jun-21 09:51 UTC.
Position N 34°15' W 119°16'.

Type: Sailing vessel. MMSI: 366805460.

Date/timePositionNaut miles runAvg speedWind from/ knotsBaromVisibWave heightAir tempDewpointWater temp
2018-Jun-17 22:47N 34°15' W 119°16'0 1.3
2018-Jun-17 22:30N 34°15' W 119°16'2 4.9
2018-Jun-17 22:01N 34°13' W 119°18'3 5.1
2018-Jun-17 21:30N 34°11' W 119°20'2 4.6
2018-Jun-17 20:59N 34°09' W 119°22'2 4.5
2018-Jun-17 20:29N 34°08' W 119°24'2 4.1
2018-Jun-17 19:59N 34°06' W 119°26'2 3.9
2018-Jun-17 19:24N 34°05' W 119°28'3 5.0
2018-Jun-17 18:54N 34°03' W 119°30'  
2018-Jun-14 17:31N 33°56' W 119°58'0 6.0
2018-Jun-14 17:28N 33°57' W 119°58'1 1.5
2018-Jun-14 17:00N 33°57' W 119°58'3 5.4
2018-Jun-14 16:30N 33°59' W 119°60'3 0.1
2018-Jun-12 19:27N 34°01' W 120°03'3 6.3
2018-Jun-12 19:00N 33°59' W 119°60'1 0.3
2018-Jun-12 16:17N 33°60' W 120°00'2 5.9
2018-Jun-12 16:00N 34°00' W 120°02'0 0.0
2018-Jun-11 20:41N 34°01' W 120°03'0 1.5
2018-Jun-11 20:27N 34°01' W 120°03'2 4.9
2018-Jun-11 20:00N 34°03' W 120°02'3 6.4
2018-Jun-11 19:29N 34°06' W 120°01'3 5.7
2018-Jun-11 19:00N 34°09' W 120°01'2 3.4
2018-Jun-11 18:29N 34°11' W 120°00'7 6.4
2018-Jun-11 17:19N 34°17' W 119°55'3 6.7
2018-Jun-11 16:50N 34°20' W 119°53'4 6.7
2018-Jun-11 16:18N 34°22' W 119°50'2 5.3
2018-Jun-11 15:59N 34°23' W 119°49'3 6.7
2018-Jun-11 15:30N 34°23' W 119°45'6 0.3
2018-Jun-10 20:18N 34°23' W 119°38'3 7.1
2018-Jun-10 19:52N 34°22' W 119°34'4 7.0
2018-Jun-10 19:20N 34°20' W 119°30'3 6.9
2018-Jun-10 18:56N 34°19' W 119°27'3 6.8
2018-Jun-10 18:30N 34°18' W 119°24'3 6.7
2018-Jun-10 18:00N 34°16' W 119°20'3 6.3
2018-Jun-10 17:30N 34°15' W 119°17'1 1.5
2018-Jun-10 16:53N 34°14' W 119°16'0 0.5
2018-Jun-10 16:16N 34°15' W 119°16'0 0.0
2018-Jun-10 15:55N 34°15' W 119°16'0 0.0
2018-Jun-10 15:22N 34°15' W 119°16'  
Track history (hours):
 
Tides and Currents Weather Stations Pressure Air Temp Water Temp Dewpoint Dewpoint Depression Visibility Wind Speed Wind Dir Waves Ship Positions

Journey

Owner: Beller, Jeff B, Ventura, CA. More information available from US FCC via Universal Licensing System and Coast Guard Vessel Documentation Center.

Last reported at 2018-Jun-17 22:47 UTC. Time now 2018-Jun-21 09:51 UTC.
Position N 34°15' W 119°16'.

Type: Sailing vessel. MMSI: 366805460.

Date/timePositionNaut miles runAvg speedWind from/ knotsBaromVisibWave heightAir tempDewpointWater temp
2018-Jun-17 22:47N 34°15' W 119°16'0 1.3
2018-Jun-17 22:30N 34°15' W 119°16'2 4.9
2018-Jun-17 22:01N 34°13' W 119°18'3 5.1
2018-Jun-17 21:30N 34°11' W 119°20'2 4.6
2018-Jun-17 20:59N 34°09' W 119°22'2 4.5
2018-Jun-17 20:29N 34°08' W 119°24'2 4.1
2018-Jun-17 19:59N 34°06' W 119°26'2 3.9
2018-Jun-17 19:24N 34°05' W 119°28'3 5.0
2018-Jun-17 18:54N 34°03' W 119°30'  
2018-Jun-14 17:31N 33°56' W 119°58'0 6.0
2018-Jun-14 17:28N 33°57' W 119°58'1 1.5
2018-Jun-14 17:00N 33°57' W 119°58'3 5.4
2018-Jun-14 16:30N 33°59' W 119°60'3 0.1
2018-Jun-12 19:27N 34°01' W 120°03'3 6.3
2018-Jun-12 19:00N 33°59' W 119°60'1 0.3
2018-Jun-12 16:17N 33°60' W 120°00'2 5.9
2018-Jun-12 16:00N 34°00' W 120°02'0 0.0
2018-Jun-11 20:41N 34°01' W 120°03'0 1.5
2018-Jun-11 20:27N 34°01' W 120°03'2 4.9
2018-Jun-11 20:00N 34°03' W 120°02'3 6.4
2018-Jun-11 19:29N 34°06' W 120°01'3 5.7
2018-Jun-11 19:00N 34°09' W 120°01'2 3.4
2018-Jun-11 18:29N 34°11' W 120°00'7 6.4
2018-Jun-11 17:19N 34°17' W 119°55'3 6.7
2018-Jun-11 16:50N 34°20' W 119°53'4 6.7
2018-Jun-11 16:18N 34°22' W 119°50'2 5.3
2018-Jun-11 15:59N 34°23' W 119°49'3 6.7
2018-Jun-11 15:30N 34°23' W 119°45'6 0.3
2018-Jun-10 20:18N 34°23' W 119°38'3 7.1
2018-Jun-10 19:52N 34°22' W 119°34'4 7.0
2018-Jun-10 19:20N 34°20' W 119°30'3 6.9
2018-Jun-10 18:56N 34°19' W 119°27'3 6.8
2018-Jun-10 18:30N 34°18' W 119°24'3 6.7
2018-Jun-10 18:00N 34°16' W 119°20'3 6.3
2018-Jun-10 17:30N 34°15' W 119°17'1 1.5
2018-Jun-10 16:53N 34°14' W 119°16'0 0.5
2018-Jun-10 16:16N 34°15' W 119°16'0 0.0
2018-Jun-10 15:55N 34°15' W 119°16'0 0.0
2018-Jun-10 15:22N 34°15' W 119°16'  

Dump ship's entire track history